Time;durP1;ratioP1;P1;durP2;ratioP2;P2;SDS_P1;SDS_P2;PMS_P1;PMS_P2;Temp;Humidity;BMP_temperature;BMP_pressure;BME280_temperature;BME280_humidity;BME280_pressure;Samples;Min_cycle;Max_cycle;Signal;HPM_P1;HPM_P2
2022/02/23 00:01:43;;;;;;;58.90;2.53;;;;;;;;;;5093854;28;20540;-68
2022/02/23 00:04:10;;;;;;;59.80;2.73;;;;;;;;;;5094343;28;21072;-69
2022/02/23 00:06:37;;;;;;;60.47;2.80;;;;;;;;;;5094591;28;20453;-69
2022/02/23 00:09:05;;;;;;;58.67;2.57;;;;;;;;;;5092791;28;20449;-69
2022/02/23 00:11:32;;;;;;;59.50;2.40;;;;;;;;;;5094415;28;20539;-71
2022/02/23 00:13:59;;;;;;;57.63;2.43;;;;;;;;;;5094093;28;20442;-69
2022/02/23 00:16:28;;;;;;;59.20;2.80;;;;;;;;;;5094197;28;20799;-70
2022/02/23 00:18:55;;;;;;;58.27;2.60;;;;;;;;;;5073857;28;20489;-70
2022/02/23 00:21:22;;;;;;;61.17;3.20;;;;;;;;;;5073871;28;20454;-68
2022/02/23 00:23:49;;;;;;;58.90;2.70;;;;;;;;;;5073939;28;20446;-69
2022/02/23 00:26:16;;;;;;;63.20;3.13;;;;;;;;;;5073849;28;20529;-69
2022/02/23 00:28:43;;;;;;;58.17;2.40;;;;;;;;;;5073263;28;20465;-69
2022/02/23 00:31:10;;;;;;;58.60;2.57;;;;;;;;;;5074034;28;20731;-70
2022/02/23 00:33:39;;;;;;;57.90;2.50;;;;;;;;;;5073959;28;20489;-69
2022/02/23 00:36:06;;;;;;;58.40;2.50;;;;;;;;;;5073635;28;20469;-70
2022/02/23 00:38:33;;;;;;;59.07;2.60;;;;;;;;;;5073379;28;20481;-70
2022/02/23 00:41:00;;;;;;;59.20;2.70;;;;;;;;;;5072836;28;20449;-70
2022/02/23 00:43:27;;;;;;;58.67;2.70;;;;;;;;;;5093409;28;20543;-70
2022/02/23 00:45:55;;;;;;;58.07;2.40;;;;;;;;;;5093828;28;20559;-70
2022/02/23 00:48:22;;;;;;;63.20;2.57;;;;;;;;;;5093628;28;20441;-70
2022/02/23 00:50:50;;;;;;;59.10;2.83;;;;;;;;;;5093524;28;20459;-70
2022/02/23 00:53:17;;;;;;;60.67;2.90;;;;;;;;;;5093539;28;20450;-70
2022/02/23 00:55:45;;;;;;;57.47;2.37;;;;;;;;;;5093298;28;20559;-72
2022/02/23 00:58:12;;;;;;;58.30;2.30;;;;;;;;;;5093027;28;20488;-70
2022/02/23 01:00:39;;;;;;;58.17;2.43;;;;;;;;;;5093507;28;20448;-70
2022/02/23 01:03:06;;;;;;;59.17;2.60;;;;;;;;;;5093222;28;20941;-69
2022/02/23 01:05:35;;;;;;;57.53;2.20;;;;;;;;;;5093205;28;21058;-69
2022/02/23 01:08:04;;;;;;;58.47;2.60;;;;;;;;;;5092985;28;20535;-71
2022/02/23 01:10:32;;;;;;;59.30;2.50;;;;;;;;;;5093270;28;20669;-70
2022/02/23 01:12:59;;;;;;;57.77;2.40;;;;;;;;;;5090835;28;20477;-72
2022/02/23 01:15:26;;;;;;;58.50;2.47;;;;;;;;;;5092294;28;20531;-71
2022/02/23 01:17:53;;;;;;;58.97;3.00;;;;;;;;;;5092867;28;20461;-70
2022/02/23 01:20:20;;;;;;;58.37;2.70;;;;;;;;;;5093091;28;20499;-70
2022/02/23 01:22:47;;;;;;;58.37;2.63;;;;;;;;;;5092845;28;20474;-70
2022/02/23 01:25:16;;;;;;;58.60;2.60;;;;;;;;;;5092946;28;21276;-70
2022/02/23 01:27:43;;;;;;;59.77;3.00;;;;;;;;;;5092607;28;20548;-69
2022/02/23 01:30:11;;;;;;;57.57;2.50;;;;;;;;;;5092843;28;20453;-71
2022/02/23 01:32:38;;;;;;;57.67;2.70;;;;;;;;;;5092791;28;20444;-70
2022/02/23 01:35:05;;;;;;;58.80;2.80;;;;;;;;;;5092691;28;20902;-70
2022/02/23 01:37:32;;;;;;;61.17;2.73;;;;;;;;;;5092568;28;20544;-72
2022/02/23 01:39:59;;;;;;;58.20;2.47;;;;;;;;;;5092526;28;21013;-69
2022/02/23 01:42:28;;;;;;;59.77;3.63;;;;;;;;;;5092692;28;20815;-71
2022/02/23 01:44:55;;;;;;;57.67;2.63;;;;;;;;;;5089816;28;20977;-71
2022/02/23 01:47:22;;;;;;;60.47;3.27;;;;;;;;;;5072203;28;20447;-71
2022/02/23 01:49:49;;;;;;;63.80;3.30;;;;;;;;;;5072230;28;20477;-72
2022/02/23 01:52:17;;;;;;;61.25;3.40;;;;;;;;;;5071992;28;20443;-71
2022/02/23 01:54:44;;;;;;;58.80;2.80;;;;;;;;;;5072276;28;20225;-71
2022/02/23 01:57:11;;;;;;;67.00;3.60;;;;;;;;;;5071873;28;20207;-73
2022/02/23 01:59:39;;;;;;;59.33;2.90;;;;;;;;;;5072348;28;20319;-71
2022/02/23 02:02:06;;;;;;;59.28;3.20;;;;;;;;;;5072003;28;20211;-70
2022/02/23 02:04:34;;;;;;;62.50;3.50;;;;;;;;;;5071623;28;20322;-71
2022/02/23 02:07:01;;;;;;;64.93;3.00;;;;;;;;;;5072154;28;20229;-71
2022/02/23 02:09:28;;;;;;;58.38;2.95;;;;;;;;;;5071949;28;20201;-71
2022/02/23 02:11:55;;;;;;;62.30;3.15;;;;;;;;;;5072026;28;20636;-70
2022/02/23 02:14:22;;;;;;;58.83;3.10;;;;;;;;;;5071858;28;20606;-71
2022/02/23 02:16:51;;;;;;;61.03;3.28;;;;;;;;;;5073105;28;20347;-72
2022/02/23 02:19:19;;;;;;;63.83;2.95;;;;;;;;;;5091920;28;20223;-71
2022/02/23 02:21:54;;;;;;;59.75;3.10;;;;;;;;;;5092102;28;20651;-71
2022/02/23 02:24:22;;;;;;;60.80;3.50;;;;;;;;;;5091606;28;20695;-71
2022/02/23 02:26:49;;;;;;;61.15;3.35;;;;;;;;;;5092034;28;20205;-71
2022/02/23 02:29:17;;;;;;;59.35;3.10;;;;;;;;;;5091566;28;20308;-71
2022/02/23 02:31:44;;;;;;;59.50;3.00;;;;;;;;;;5091702;28;20305;-72
2022/02/23 02:34:17;;;;;;;59.60;2.90;;;;;;;;;;5091929;28;20236;-70
2022/02/23 02:36:44;;;;;;;65.63;3.30;;;;;;;;;;5090216;28;20633;-71
2022/02/23 02:39:13;;;;;;;60.30;3.38;;;;;;;;;;5091453;28;20265;-71
2022/02/23 02:41:40;;;;;;;63.63;3.00;;;;;;;;;;5091848;28;20228;-72
2022/02/23 02:44:07;;;;;;;58.85;2.97;;;;;;;;;;5091536;28;20319;-71
2022/02/23 02:46:35;;;;;;;59.95;3.30;;;;;;;;;;5091759;28;20677;-71
2022/02/23 02:49:02;;;;;;;59.40;3.13;;;;;;;;;;5089095;28;20215;-70
2022/02/23 02:51:29;;;;;;;61.38;2.97;;;;;;;;;;5091926;28;20204;-70
2022/02/23 02:53:56;;;;;;;60.72;3.45;;;;;;;;;;5091702;28;20293;-70
2022/02/23 02:56:25;;;;;;;61.10;2.75;;;;;;;;;;5091990;28;20299;-70
2022/02/23 02:58:53;;;;;;;60.25;3.00;;;;;;;;;;5091261;28;20716;-70
2022/02/23 03:01:20;;;;;;;58.13;2.60;;;;;;;;;;5091463;28;20205;-70
2022/02/23 03:03:48;;;;;;;59.08;2.72;;;;;;;;;;5091226;28;20207;-71
2022/02/23 03:06:15;;;;;;;59.65;3.05;;;;;;;;;;5091542;28;20296;-71
2022/02/23 03:08:42;;;;;;;61.40;3.05;;;;;;;;;;5091170;28;20208;-67
2022/02/23 03:11:09;;;;;;;59.75;3.47;;;;;;;;;;5091384;28;20752;-68
2022/02/23 03:13:38;;;;;;;59.10;3.00;;;;;;;;;;5091772;28;20204;-70
2022/02/23 03:16:06;;;;;;;60.00;2.88;;;;;;;;;;5091205;28;20231;-71
2022/02/23 03:18:33;;;;;;;59.65;3.28;;;;;;;;;;5091337;28;20295;-70
2022/02/23 03:21:00;;;;;;;58.97;2.90;;;;;;;;;;5091395;28;20590;-70
2022/02/23 03:23:27;;;;;;;60.83;3.10;;;;;;;;;;5089529;28;20201;-71
2022/02/23 03:25:55;;;;;;;61.38;3.30;;;;;;;;;;5091377;28;20226;-70
2022/02/23 03:28:22;;;;;;;59.90;3.17;;;;;;;;;;5090936;28;20212;-70
2022/02/23 03:30:51;;;;;;;60.10;2.95;;;;;;;;;;5091203;28;20532;-70
2022/02/23 03:33:18;;;;;;;58.65;2.55;;;;;;;;;;5073553;28;20212;-71
2022/02/23 03:35:46;;;;;;;58.30;2.93;;;;;;;;;;5072515;28;20317;-70
2022/02/23 03:38:13;;;;;;;61.45;2.90;;;;;;;;;;5074494;28;20443;-70
2022/02/23 03:40:42;;;;;;;60.53;3.33;;;;;;;;;;5074779;28;20320;-70
2022/02/23 03:43:09;;;;;;;62.22;3.05;;;;;;;;;;5075050;28;20664;-70
2022/02/23 03:45:37;;;;;;;59.70;2.70;;;;;;;;;;5074639;28;20325;-70
2022/02/23 03:48:06;;;;;;;60.80;3.05;;;;;;;;;;5074495;28;20210;-70
2022/02/23 03:50:33;;;;;;;59.35;2.85;;;;;;;;;;5074593;28;20274;-70
2022/02/23 03:53:01;;;;;;;57.88;2.70;;;;;;;;;;5074271;28;20209;-70
2022/02/23 03:55:28;;;;;;;61.38;2.90;;;;;;;;;;5086505;28;20320;-70
2022/02/23 03:57:55;;;;;;;62.08;3.00;;;;;;;;;;5094279;28;20298;-70
2022/02/23 04:00:22;;;;;;;61.78;3.40;;;;;;;;;;5094790;28;20226;-71
2022/02/23 04:02:49;;;;;;;60.83;3.10;;;;;;;;;;5094783;28;20541;-70
2022/02/23 04:05:18;;;;;;;60.17;3.13;;;;;;;;;;5094469;28;20778;-70
2022/02/23 04:07:47;;;;;;;58.92;2.90;;;;;;;;;;5094184;28;20295;-70
2022/02/23 04:10:18;;;;;;;59.10;3.65;;;;;;;;;;5094238;28;20223;-70
2022/02/23 04:12:46;;;;;;;59.95;3.00;;;;;;;;;;5094364;28;20703;-70
2022/02/23 04:15:13;;;;;;;58.20;2.85;;;;;;;;;;5094353;28;20315;-70
2022/02/23 04:17:40;;;;;;;59.83;3.15;;;;;;;;;;5094100;28;20204;-70
2022/02/23 04:20:08;;;;;;;70.03;5.35;;;;;;;;;;5094241;28;20560;-70
2022/02/23 04:22:36;;;;;;;63.75;5.05;;;;;;;;;;5094040;28;20204;-70
2022/02/23 04:25:04;;;;;;;60.95;3.85;;;;;;;;;;5093806;28;20236;-70
2022/02/23 04:27:31;;;;;;;61.30;3.70;;;;;;;;;;5091583;28;20684;-70
2022/02/23 04:29:59;;;;;;;60.00;4.07;;;;;;;;;;5094157;28;20286;-70
2022/02/23 04:32:26;;;;;;;61.17;3.80;;;;;;;;;;5093948;28;20204;-70
2022/02/23 04:34:54;;;;;;;61.85;3.90;;;;;;;;;;5094025;28;20312;-70
2022/02/23 04:37:23;;;;;;;62.58;3.20;;;;;;;;;;5093380;28;20200;-71
2022/02/23 04:39:51;;;;;;;59.45;3.40;;;;;;;;;;5093710;28;20723;-70
2022/02/23 04:42:19;;;;;;;59.35;3.40;;;;;;;;;;5093874;28;20204;-70
2022/02/23 04:44:46;;;;;;;58.30;3.10;;;;;;;;;;5093890;28;20257;-71
2022/02/23 04:47:14;;;;;;;59.78;3.05;;;;;;;;;;5093080;28;20211;-70
2022/02/23 04:49:41;;;;;;;61.25;3.55;;;;;;;;;;5093698;28;20200;-70
2022/02/23 04:52:08;;;;;;;62.15;3.70;;;;;;;;;;5093333;28;20200;-70
2022/02/23 04:54:36;;;;;;;59.63;3.60;;;;;;;;;;5093595;28;20229;-70
2022/02/23 04:57:04;;;;;;;62.60;3.38;;;;;;;;;;5093606;28;20212;-70
2022/02/23 04:59:32;;;;;;;62.97;4.20;;;;;;;;;;5090628;28;20223;-70
2022/02/23 05:01:59;;;;;;;62.53;4.18;;;;;;;;;;5093355;28;20211;-70
2022/02/23 05:04:27;;;;;;;65.93;3.85;;;;;;;;;;5093052;28;20312;-72
2022/02/23 05:06:54;;;;;;;62.53;4.00;;;;;;;;;;5093447;28;20212;-72
2022/02/23 05:09:21;;;;;;;59.97;4.05;;;;;;;;;;5092991;28;20215;-70
2022/02/23 05:11:48;;;;;;;66.32;4.25;;;;;;;;;;5093375;28;20300;-72
2022/02/23 05:14:17;;;;;;;60.05;3.97;;;;;;;;;;5093185;28;20246;-70
2022/02/23 05:16:44;;;;;;;62.75;3.85;;;;;;;;;;5093596;28;20235;-70
2022/02/23 05:19:11;;;;;;;60.42;3.58;;;;;;;;;;5092536;28;20295;-70
2022/02/23 05:21:38;;;;;;;61.53;3.97;;;;;;;;;;5093384;28;20635;-70
2022/02/23 05:24:05;;;;;;;60.10;4.10;;;;;;;;;;5092724;28;20701;-70
2022/02/23 05:26:33;;;;;;;59.33;3.95;;;;;;;;;;5093088;28;20639;-71
2022/02/23 05:29:00;;;;;;;62.70;4.75;;;;;;;;;;5092521;28;20700;-70
2022/02/23 05:31:28;;;;;;;59.90;3.33;;;;;;;;;;5091236;28;20204;-70
2022/02/23 05:33:55;;;;;;;60.75;4.00;;;;;;;;;;5092772;28;20204;-70
2022/02/23 05:36:22;;;;;;;63.90;4.07;;;;;;;;;;5093033;28;20594;-70
2022/02/23 05:38:49;;;;;;;62.72;4.35;;;;;;;;;;5092399;28;20210;-70
2022/02/23 05:41:17;;;;;;;60.95;4.60;;;;;;;;;;5093010;28;20310;-70
2022/02/23 05:43:44;;;;;;;60.65;5.00;;;;;;;;;;5092583;28;20242;-70
2022/02/23 05:46:11;;;;;;;61.25;4.72;;;;;;;;;;5092383;28;20228;-72
2022/02/23 05:48:40;;;;;;;62.40;5.65;;;;;;;;;;5092399;28;20229;-70
2022/02/23 05:51:07;;;;;;;66.40;5.53;;;;;;;;;;5092585;28;20223;-70
2022/02/23 05:53:36;;;;;;;63.55;5.97;;;;;;;;;;5092381;28;20208;-70
2022/02/23 05:56:04;;;;;;;60.92;5.05;;;;;;;;;;5092942;28;20255;-70
2022/02/23 05:58:31;;;;;;;65.38;4.90;;;;;;;;;;5091392;28;20207;-70
2022/02/23 06:00:59;;;;;;;63.20;5.05;;;;;;;;;;5089900;28;20316;-69
2022/02/23 06:03:26;;;;;;;60.83;4.38;;;;;;;;;;5092376;28;20556;-70
2022/02/23 06:05:54;;;;;;;65.38;4.95;;;;;;;;;;5092267;28;20311;-70
2022/02/23 06:08:21;;;;;;;62.88;4.80;;;;;;;;;;5092050;28;20208;-70
2022/02/23 06:10:48;;;;;;;62.75;5.97;;;;;;;;;;5092166;28;20201;-70
2022/02/23 06:13:16;;;;;;;63.15;5.22;;;;;;;;;;5092271;28;20211;-71
2022/02/23 06:15:43;;;;;;;60.35;5.28;;;;;;;;;;5092167;28;20665;-70
2022/02/23 06:18:10;;;;;;;61.05;4.80;;;;;;;;;;5091747;28;20625;-70
2022/02/23 06:20:38;;;;;;;66.32;5.65;;;;;;;;;;5092103;28;20369;-69
2022/02/23 06:23:06;;;;;;;62.10;5.18;;;;;;;;;;5091964;28;20215;-70
2022/02/23 06:25:33;;;;;;;65.50;5.30;;;;;;;;;;5092051;28;20224;-70
2022/02/23 06:28:02;;;;;;;63.28;6.35;;;;;;;;;;5091277;28;20218;-70
2022/02/23 06:30:29;;;;;;;60.78;4.97;;;;;;;;;;5092128;28;20200;-70
2022/02/23 06:32:56;;;;;;;65.38;4.97;;;;;;;;;;5089096;28;20287;-69
2022/02/23 06:35:24;;;;;;;69.35;4.95;;;;;;;;;;5091865;28;20228;-70
2022/02/23 06:37:51;;;;;;;61.92;4.82;;;;;;;;;;5091462;28;20287;-70
2022/02/23 06:40:20;;;;;;;65.82;6.07;;;;;;;;;;5091592;28;20360;-70
2022/02/23 06:42:47;;;;;;;66.43;4.85;;;;;;;;;;5091901;28;20204;-70
2022/02/23 06:45:14;;;;;;;64.07;4.70;;;;;;;;;;5091918;28;20232;-69
2022/02/23 06:47:41;;;;;;;63.53;4.80;;;;;;;;;;5091464;28;20211;-70
2022/02/23 06:50:09;;;;;;;62.13;5.13;;;;;;;;;;5091567;28;20200;-72
2022/02/23 06:52:38;;;;;;;62.20;5.10;;;;;;;;;;5091567;28;20200;-71
2022/02/23 06:55:05;;;;;;;62.63;4.93;;;;;;;;;;5091382;28;20649;-69
2022/02/23 06:57:38;;;;;;;65.82;5.20;;;;;;;;;;5091565;28;20209;-67
2022/02/23 07:00:06;;;;;;;60.30;4.47;;;;;;;;;;5091660;28;20314;-70
2022/02/23 07:02:33;;;;;;;65.28;5.25;;;;;;;;;;5091504;28;20361;-69
2022/02/23 07:05:00;;;;;;;63.83;5.20;;;;;;;;;;5089377;28;20221;-67
2022/02/23 07:07:28;;;;;;;61.03;4.82;;;;;;;;;;5091199;28;20654;-68
2022/02/23 07:09:55;;;;;;;66.68;4.53;;;;;;;;;;5093744;28;20291;-68
2022/02/23 07:12:22;;;;;;;64.32;5.30;;;;;;;;;;5095600;28;20208;-68
2022/02/23 07:14:50;;;;;;;63.03;5.10;;;;;;;;;;5095471;28;20314;-68
2022/02/23 07:17:18;;;;;;;60.63;4.65;;;;;;;;;;5095282;28;20222;-69
2022/02/23 07:19:45;;;;;;;62.70;4.90;;;;;;;;;;5095337;28;20210;-68
2022/02/23 07:22:12;;;;;;;60.72;4.68;;;;;;;;;;5095261;28;20204;-69
2022/02/23 07:24:39;;;;;;;61.08;4.85;;;;;;;;;;5095435;28;20568;-68
2022/02/23 07:27:10;;;;;;;64.55;7.47;;;;;;;;;;5095397;28;20201;-68
2022/02/23 07:29:38;;;;;;;67.35;6.47;;;;;;;;;;5095234;28;20684;-68
2022/02/23 07:32:07;;;;;;;64.35;5.03;;;;;;;;;;5095175;28;20204;-68
2022/02/23 07:34:37;;;;;;;65.85;5.85;;;;;;;;;;5094320;28;20728;-70
2022/02/23 07:37:05;;;;;;;63.55;5.00;;;;;;;;;;5093282;28;20209;-70
2022/02/23 07:39:32;;;;;;;60.00;4.50;;;;;;;;;;5094939;28;20204;-68
2022/02/23 07:41:59;;;;;;;65.55;5.50;;;;;;;;;;5094937;28;20263;-68
2022/02/23 07:44:26;;;;;;;60.85;4.60;;;;;;;;;;5094960;28;20667;-69
2022/02/23 07:46:54;;;;;;;65.00;4.97;;;;;;;;;;5094594;28;20671;-68
2022/02/23 07:49:23;;;;;;;64.88;6.55;;;;;;;;;;5094862;28;20299;-68
2022/02/23 07:51:50;;;;;;;70.88;6.50;;;;;;;;;;5095160;28;20206;-68
2022/02/23 07:54:17;;;;;;;63.80;5.35;;;;;;;;;;5094689;28;20224;-68
2022/02/23 07:56:45;;;;;;;66.55;6.47;;;;;;;;;;5094981;28;20222;-69
2022/02/23 07:59:12;;;;;;;65.20;5.60;;;;;;;;;;5094492;28;20636;-68
2022/02/23 08:01:40;;;;;;;65.38;5.95;;;;;;;;;;5094418;28;20320;-69
2022/02/23 08:04:07;;;;;;;63.13;5.38;;;;;;;;;;5094274;28;20244;-69
2022/02/23 08:06:37;;;;;;;68.13;5.85;;;;;;;;;;5094532;28;20212;-69
2022/02/23 08:09:07;;;;;;;67.63;5.72;;;;;;;;;;5092681;28;20265;-69
2022/02/23 08:11:36;;;;;;;64.93;5.97;;;;;;;;;;5094396;28;20295;-69
2022/02/23 08:14:04;;;;;;;69.93;6.45;;;;;;;;;;5094059;28;20588;-69
2022/02/23 08:19:32;;;;;;;64.13;6.03;;;;;;;;;;5094316;28;20195;-69
2022/02/23 08:22:01;;;;;;;61.60;4.70;;;;;;;;;;5093695;28;20225;-68
2022/02/23 08:24:28;;;;;;;70.47;5.65;;;;;;;;;;5093896;28;20603;-68
2022/02/23 08:26:56;;;;;;;62.22;4.88;;;;;;;;;;5094319;28;20201;-68
2022/02/23 08:29:23;;;;;;;67.85;5.00;;;;;;;;;;5093999;28;20212;-68
2022/02/23 08:31:50;;;;;;;62.50;4.82;;;;;;;;;;5094041;28;20297;-68
2022/02/23 08:34:18;;;;;;;63.95;5.25;;;;;;;;;;5093982;28;20233;-68
2022/02/23 08:36:45;;;;;;;64.70;5.10;;;;;;;;;;5093890;28;20223;-68
2022/02/23 08:39:15;;;;;;;59.95;4.30;;;;;;;;;;5093391;28;20297;-68
2022/02/23 08:41:42;;;;;;;67.53;4.40;;;;;;;;;;5092174;28;20221;-69
2022/02/23 08:44:09;;;;;;;63.22;4.95;;;;;;;;;;5093717;28;20230;-68
2022/02/23 08:46:36;;;;;;;61.65;4.10;;;;;;;;;;5093674;28;20206;-68
2022/02/23 08:49:04;;;;;;;62.70;4.10;;;;;;;;;;5093564;28;20210;-68
2022/02/23 08:51:31;;;;;;;66.05;4.50;;;;;;;;;;5093502;28;20206;-68
2022/02/23 08:53:58;;;;;;;61.00;4.85;;;;;;;;;;5093416;28;20214;-68
2022/02/23 08:56:27;;;;;;;66.60;4.75;;;;;;;;;;5093814;28;20301;-68
2022/02/23 08:58:54;;;;;;;64.63;4.78;;;;;;;;;;5093387;28;20204;-69
2022/02/23 09:01:21;;;;;;;67.50;5.00;;;;;;;;;;5093513;28;20639;-70
2022/02/23 09:03:49;;;;;;;61.20;4.55;;;;;;;;;;5093628;28;20527;-70
2022/02/23 09:06:17;;;;;;;63.05;4.45;;;;;;;;;;5093331;28;20201;-68
2022/02/23 09:08:44;;;;;;;65.50;4.45;;;;;;;;;;5093055;28;20210;-68
2022/02/23 09:11:12;;;;;;;63.25;4.53;;;;;;;;;;5093487;28;20203;-69
2022/02/23 09:13:40;;;;;;;61.77;4.23;;;;;;;;;;5090570;28;20204;-68
2022/02/23 09:16:07;;;;;;;63.80;4.40;;;;;;;;;;5093215;28;20476;-69
2022/02/23 09:18:35;;;;;;;61.77;4.03;;;;;;;;;;5092696;28;20211;-69
2022/02/23 09:21:02;;;;;;;60.03;4.30;;;;;;;;;;5092896;28;20943;-69
2022/02/23 09:23:31;;;;;;;62.50;3.97;;;;;;;;;;5093422;28;20449;-69
2022/02/23 09:25:59;;;;;;;62.60;4.73;;;;;;;;;;5093123;28;20474;-69
2022/02/23 09:28:26;;;;;;;60.67;4.13;;;;;;;;;;5092770;28;20491;-69
2022/02/23 09:30:54;;;;;;;61.83;3.77;;;;;;;;;;5092928;28;20520;-69
2022/02/23 09:33:21;;;;;;;60.50;3.60;;;;;;;;;;5091696;28;20547;-68
2022/02/23 09:35:49;;;;;;;60.17;3.30;;;;;;;;;;5092764;28;20474;-68
2022/02/23 09:38:17;;;;;;;68.93;4.53;;;;;;;;;;5092728;28;20455;-69
2022/02/23 09:40:46;;;;;;;60.80;3.63;;;;;;;;;;5092835;28;20449;-69
2022/02/23 09:43:13;;;;;;;60.60;3.53;;;;;;;;;;5092789;28;20449;-69
2022/02/23 09:45:42;;;;;;;63.03;4.23;;;;;;;;;;5089369;28;20564;-69
2022/02/23 09:48:11;;;;;;;62.43;3.33;;;;;;;;;;5092658;28;21012;-69
2022/02/23 09:50:38;;;;;;;60.47;4.00;;;;;;;;;;5092658;28;20890;-69
2022/02/23 09:53:06;;;;;;;59.40;3.37;;;;;;;;;;5092584;28;20457;-68
2022/02/23 09:55:34;;;;;;;62.37;3.20;;;;;;;;;;5092427;28;20474;-69
2022/02/23 09:58:01;;;;;;;58.80;3.30;;;;;;;;;;5092281;28;20444;-69
2022/02/23 10:00:29;;;;;;;59.17;3.60;;;;;;;;;;5092026;28;20446;-69
2022/02/23 10:02:57;;;;;;;60.37;3.37;;;;;;;;;;5092408;28;20581;-69
2022/02/23 10:05:25;;;;;;;62.87;3.47;;;;;;;;;;5092383;28;20473;-71
2022/02/23 10:07:53;;;;;;;62.87;3.53;;;;;;;;;;5091933;28;20453;-69
2022/02/23 10:10:30;;;;;;;59.57;3.07;;;;;;;;;;5092306;28;20457;-71
2022/02/23 10:12:59;;;;;;;61.17;3.23;;;;;;;;;;5091816;28;20522;-70
2022/02/23 10:15:26;;;;;;;67.67;3.67;;;;;;;;;;5091781;28;20520;-70
2022/02/23 10:17:54;;;;;;;61.80;3.70;;;;;;;;;;5089812;28;20450;-70
2022/02/23 10:20:22;;;;;;;60.63;2.90;;;;;;;;;;5092391;28;20534;-71
2022/02/23 10:22:51;;;;;;;59.70;2.83;;;;;;;;;;5091788;28;20485;-70
2022/02/23 10:25:22;;;;;;;62.30;3.20;;;;;;;;;;5092122;28;20747;-69
2022/02/23 10:27:50;;;;;;;60.77;2.80;;;;;;;;;;5091883;28;20446;-70
2022/02/23 10:30:26;;;;;;;61.93;3.17;;;;;;;;;;5092177;28;20444;-70
2022/02/23 10:32:54;;;;;;;62.07;3.10;;;;;;;;;;5091453;28;20879;-69
2022/02/23 10:35:27;;;;;;;62.20;3.43;;;;;;;;;;5091818;28;20470;-71
2022/02/23 10:37:55;;;;;;;59.67;2.70;;;;;;;;;;5071259;28;20443;-69
2022/02/23 10:40:23;;;;;;;63.40;3.03;;;;;;;;;;5071228;28;20443;-71
2022/02/23 10:42:51;;;;;;;60.60;2.90;;;;;;;;;;5071479;28;20486;-70
2022/02/23 10:45:18;;;;;;;59.10;3.03;;;;;;;;;;5076406;28;20998;-70
2022/02/23 10:47:48;;;;;;;61.57;2.97;;;;;;;;;;5078076;28;20471;-71
2022/02/23 10:50:17;;;;;;;62.97;3.33;;;;;;;;;;5078126;28;20494;-69
2022/02/23 10:52:45;;;;;;;60.63;2.87;;;;;;;;;;5078573;28;20800;-69
2022/02/23 10:55:19;;;;;;;58.97;3.00;;;;;;;;;;5078286;28;20467;-70
2022/02/23 10:57:47;;;;;;;59.27;2.70;;;;;;;;;;5077886;28;20446;-69
2022/02/23 11:00:19;;;;;;;59.60;2.93;;;;;;;;;;5084629;28;20450;-70
2022/02/23 11:02:46;;;;;;;61.87;3.07;;;;;;;;;;5098233;28;20827;-70
2022/02/23 11:05:14;;;;;;;62.67;3.37;;;;;;;;;;5098264;28;20556;-69
2022/02/23 11:07:44;;;;;;;60.00;3.00;;;;;;;;;;5098416;28;20816;-70
2022/02/23 11:10:13;;;;;;;61.47;3.20;;;;;;;;;;5098425;28;20455;-70
2022/02/23 11:12:43;;;;;;;59.17;2.50;;;;;;;;;;5098378;28;20442;-70
2022/02/23 11:15:11;;;;;;;59.50;2.90;;;;;;;;;;5098023;28;20815;-69
2022/02/23 11:17:39;;;;;;;59.97;2.40;;;;;;;;;;5097711;28;20536;-69
2022/02/23 11:20:07;;;;;;;59.50;3.07;;;;;;;;;;5098198;28;20536;-69
2022/02/23 11:22:34;;;;;;;59.60;2.63;;;;;;;;;;5097955;28;20486;-72
2022/02/23 11:25:02;;;;;;;61.40;2.80;;;;;;;;;;5098095;28;20552;-69
2022/02/23 11:27:32;;;;;;;60.70;2.80;;;;;;;;;;5097798;28;20456;-69
2022/02/23 11:30:05;;;;;;;64.30;3.70;;;;;;;;;;5097828;28;20466;-69
2022/02/23 11:32:32;;;;;;;58.97;2.77;;;;;;;;;;5086681;28;20768;-70
2022/02/23 11:35:00;;;;;;;61.77;3.20;;;;;;;;;;5077933;28;20565;-70
2022/02/23 11:37:30;;;;;;;61.27;2.70;;;;;;;;;;5077539;28;20452;-70
2022/02/23 11:39:58;;;;;;;63.83;4.33;;;;;;;;;;5077886;28;20456;-70
2022/02/23 11:42:26;;;;;;;60.90;2.97;;;;;;;;;;5077357;28;20477;-70
2022/02/23 11:45:06;;;;;;;59.60;2.60;;;;;;;;;;5077631;28;20471;-70
2022/02/23 11:50:20;;;;;;;58.30;2.30;;;;;;;;;;5077723;28;20427;-71
2022/02/23 11:52:48;;;;;;;60.03;2.50;;;;;;;;;;5077393;28;20449;-68
2022/02/23 11:55:15;;;;;;;61.10;2.70;;;;;;;;;;5077001;28;20504;-68
2022/02/23 11:58:01;;;;;;;59.53;2.67;;;;;;;;;;5073459;28;20545;-68
2022/02/23 12:00:43;;;;;;;57.97;2.50;;;;;;;;;;5074390;28;20451;-68
2022/02/23 12:03:12;;;;;;;60.53;2.37;;;;;;;;;;5074367;28;20485;-69
2022/02/23 12:05:41;;;;;;;60.20;3.17;;;;;;;;;;5094676;28;20850;-70
2022/02/23 12:08:09;;;;;;;59.20;2.70;;;;;;;;;;5094306;28;20456;-70
2022/02/23 12:10:38;;;;;;;61.27;2.80;;;;;;;;;;5094672;28;20481;-70
2022/02/23 12:13:05;;;;;;;61.47;3.00;;;;;;;;;;5094155;28;20817;-69
2022/02/23 12:15:35;;;;;;;59.37;3.07;;;;;;;;;;5094214;28;20470;-70
2022/02/23 12:18:03;;;;;;;63.30;3.20;;;;;;;;;;5094285;28;20447;-69
2022/02/23 12:20:49;;;;;;;62.30;3.13;;;;;;;;;;5094159;28;20454;-69
2022/02/23 12:23:46;;;;;;;61.67;3.07;;;;;;;;;;5094112;28;21105;-69
2022/02/23 12:26:20;;;;;;;62.07;3.40;;;;;;;;;;5011800;28;20473;-70
2022/02/23 12:28:48;;;;;;;63.77;3.47;;;;;;;;;;5077948;28;20458;-70
2022/02/23 12:31:18;;;;;;;64.47;2.73;;;;;;;;;;5094144;28;20453;-70
2022/02/23 12:33:46;;;;;;;66.90;3.30;;;;;;;;;;5093745;28;20477;-70
2022/02/23 12:36:14;;;;;;;59.57;2.67;;;;;;;;;;5092147;28;20466;-70
2022/02/23 12:38:43;;;;;;;59.40;3.07;;;;;;;;;;5093559;28;20452;-70
2022/02/23 12:41:15;;;;;;;61.33;3.50;;;;;;;;;;5093860;28;20461;-70
2022/02/23 12:43:44;;;;;;;59.30;2.77;;;;;;;;;;5093883;28;20897;-70
2022/02/23 12:46:11;;;;;;;60.27;2.80;;;;;;;;;;5093623;28;20469;-70
2022/02/23 12:48:40;;;;;;;59.90;3.20;;;;;;;;;;5093541;28;20830;-70
2022/02/23 12:51:08;;;;;;;61.00;3.00;;;;;;;;;;5093556;28;20442;-69
2022/02/23 12:53:36;;;;;;;61.43;3.47;;;;;;;;;;5093613;28;20908;-69
2022/02/23 12:56:15;;;;;;;61.20;2.90;;;;;;;;;;5093518;28;20465;-69
2022/02/23 12:58:44;;;;;;;58.90;3.03;;;;;;;;;;5093249;28;20947;-68
2022/02/23 13:01:18;;;;;;;58.80;2.50;;;;;;;;;;5093444;28;20442;-69
2022/02/23 13:03:45;;;;;;;61.23;2.97;;;;;;;;;;5093276;28;20489;-70
2022/02/23 13:06:12;;;;;;;60.50;3.13;;;;;;;;;;5090756;28;20470;-70
2022/02/23 13:08:39;;;;;;;61.40;2.87;;;;;;;;;;5092798;28;20537;-69
2022/02/23 13:11:06;;;;;;;59.17;2.70;;;;;;;;;;5093159;28;20542;-68
2022/02/23 13:13:41;;;;;;;59.57;3.00;;;;;;;;;;5093128;28;20481;-69
2022/02/23 13:16:10;;;;;;;62.60;2.73;;;;;;;;;;5092984;28;20549;-68
2022/02/23 13:18:38;;;;;;;62.60;2.97;;;;;;;;;;5093280;28;20450;-68
2022/02/23 13:21:09;;;;;;;60.53;2.97;;;;;;;;;;5093235;28;20502;-70
2022/02/23 13:23:52;;;;;;;64.10;3.30;;;;;;;;;;5093139;28;20474;-68
2022/02/23 13:26:20;;;;;;;63.13;3.73;;;;;;;;;;5092973;28;20533;-70
2022/02/23 13:29:00;;;;;;;60.00;2.93;;;;;;;;;;5092367;28;20469;-70
2022/02/23 13:31:39;;;;;;;61.27;2.90;;;;;;;;;;5092960;28;20751;-70
2022/02/23 13:34:16;;;;;;;59.57;2.90;;;;;;;;;;5092757;28;20440;-69
2022/02/23 13:36:44;;;;;;;63.30;3.23;;;;;;;;;;5092636;28;20533;-68
2022/02/23 13:39:18;;;;;;;58.47;2.70;;;;;;;;;;5090172;28;20533;-70
2022/02/23 13:41:50;;;;;;;59.60;3.00;;;;;;;;;;5092761;28;20446;-70
2022/02/23 13:44:21;;;;;;;59.90;2.83;;;;;;;;;;5092526;28;20974;-70
2022/02/23 13:46:51;;;;;;;59.57;2.70;;;;;;;;;;5092687;28;20465;-71
2022/02/23 13:49:18;;;;;;;61.20;2.97;;;;;;;;;;5092507;28;20450;-70
2022/02/23 13:51:46;;;;;;;60.77;2.87;;;;;;;;;;5092486;28;20486;-69
2022/02/23 13:54:13;;;;;;;59.20;2.60;;;;;;;;;;5092532;28;20466;-70
2022/02/23 13:56:43;;;;;;;58.43;2.30;;;;;;;;;;5092733;28;20447;-69
2022/02/23 13:59:11;;;;;;;64.80;2.50;;;;;;;;;;5092162;28;20446;-69
2022/02/23 14:01:53;;;;;;;61.10;3.13;;;;;;;;;;5092414;28;20451;-70
2022/02/23 14:04:22;;;;;;;58.50;2.67;;;;;;;;;;5091932;28;20488;-69
2022/02/23 14:06:50;;;;;;;59.97;2.40;;;;;;;;;;5092585;28;20825;-69
2022/02/23 14:09:17;;;;;;;62.27;3.30;;;;;;;;;;5090144;28;20448;-69
2022/02/23 14:11:45;;;;;;;59.00;3.07;;;;;;;;;;5092266;28;20452;-68
2022/02/23 14:14:14;;;;;;;61.17;2.70;;;;;;;;;;5091986;28;20902;-69
2022/02/23 14:16:44;;;;;;;61.90;3.43;;;;;;;;;;5092168;28;20945;-70
2022/02/23 14:19:16;;;;;;;58.97;2.30;;;;;;;;;;5091396;28;20450;-69
2022/02/23 14:21:47;;;;;;;59.83;2.73;;;;;;;;;;5092284;28;20560;-69
2022/02/23 14:24:19;;;;;;;63.27;2.70;;;;;;;;;;5091999;28;20465;-69
2022/02/23 14:26:53;;;;;;;60.00;2.50;;;;;;;;;;5092686;28;20496;-68
2022/02/23 14:29:25;;;;;;;59.80;2.90;;;;;;;;;;5091745;28;20544;-69
2022/02/23 14:31:54;;;;;;;59.53;2.70;;;;;;;;;;5092010;28;20450;-68
2022/02/23 14:34:23;;;;;;;63.27;3.17;;;;;;;;;;5091753;28;20518;-68
2022/02/23 14:36:52;;;;;;;59.37;2.83;;;;;;;;;;5091949;28;20472;-69
2022/02/23 14:39:20;;;;;;;58.10;2.50;;;;;;;;;;5092001;28;20472;-69
2022/02/23 14:41:47;;;;;;;63.30;2.90;;;;;;;;;;5077282;28;20578;-69
2022/02/23 14:44:14;;;;;;;59.60;2.83;;;;;;;;;;5071572;28;20981;-69